Time;durP1;ratioP1;P1;durP2;ratioP2;P2;SDS_P1;SDS_P2;PMS_P1;PMS_P2;Temp;Humidity;BMP_temperature;BMP_pressure;BME280_temperature;BME280_humidity;BME280_pressure;Samples;Min_cycle;Max_cycle;Signal;HPM_P1;HPM_P2
2021/12/17 00:09:12;;;;;;;1.33;0.97;;;8.90;91.20;;;;;;6295962;28;21024;-63
2021/12/17 00:12:22;;;;;;;1.00;0.90;;;8.80;91.20;;;;;;6294903;28;20477;-63
2021/12/17 00:15:25;;;;;;;0.90;0.90;;;8.70;91.30;;;;;;6274906;28;20662;-63
2021/12/17 00:18:35;;;;;;;0.80;0.80;;;8.50;91.40;;;;;;6298208;28;20473;-67
2021/12/17 00:48:37;;;;;;;1.20;1.10;;;7.90;92.60;;;;;;6299914;28;20469;-62
2021/12/17 00:51:56;;;;;;;1.43;1.30;;;7.80;92.70;;;;;;6292555;28;20792;-66
2021/12/17 00:54:59;;;;;;;1.60;1.27;;;7.80;92.80;;;;;;6302293;28;20814;-65
2021/12/17 00:58:04;;;;;;;4.50;2.03;;;7.70;92.70;;;;;;6277016;28;20474;-66
2021/12/17 01:01:07;;;;;;;2.97;2.67;;;7.50;92.80;;;;;;6276534;28;20466;-66
2021/12/17 01:04:10;;;;;;;2.60;2.40;;;7.40;93.20;;;;;;6290676;28;20481;-65
2021/12/17 01:07:14;;;;;;;2.07;1.87;;;7.20;93.30;;;;;;6301888;28;20437;-65
2021/12/17 01:10:23;;;;;;;1.97;1.50;;;7.00;93.60;;;;;;6302354;28;20510;-65
2021/12/17 01:13:29;;;;;;;1.50;1.20;;;6.90;93.90;;;;;;6300893;28;20469;-64
2021/12/17 01:16:32;;;;;;;2.30;1.70;;;6.90;94.30;;;;;;6289547;28;20474;-65
2021/12/17 01:20:07;;;;;;;1.47;1.37;;;6.80;94.30;;;;;;6277204;28;20477;-65
2021/12/17 01:23:19;;;;;;;3.00;1.30;;;6.80;94.20;;;;;;6276505;28;20478;-64
2021/12/17 01:36:25;;;;;;;1.13;1.07;;;6.90;94.60;;;;;;6277052;28;20503;-64
2021/12/17 01:43:00;;;;;;;1.00;1.00;;;7.10;94.50;;;;;;6277257;28;20492;-64
2021/12/17 01:46:06;;;;;;;1.53;1.40;;;7.40;94.70;;;;;;6276288;28;20485;-64
2021/12/17 01:49:26;;;;;;;1.40;1.30;;;7.50;94.10;;;;;;6276346;28;20446;-65
2021/12/17 01:56:03;;;;;;;1.30;1.20;;;7.40;93.90;;;;;;6276268;28;20470;-64
2021/12/17 02:02:44;;;;;;;1.27;1.17;;;7.40;93.50;;;;;;6251603;28;20477;-64
2021/12/17 02:05:47;;;;;;;1.13;1.03;;;7.30;93.00;;;;;;6276470;28;20493;-64
2021/12/17 02:08:53;;;;;;;1.00;1.00;;;7.20;93.10;;;;;;6290037;28;20964;-64
2021/12/17 02:12:20;;;;;;;1.00;1.00;;;7.20;93.20;;;;;;6286112;28;20829;-64
2021/12/17 02:28:47;;;;;;;2.20;1.77;;;6.80;93.70;;;;;;6299098;28;20495;-65
2021/12/17 02:31:55;;;;;;;1.60;1.50;;;6.70;94.30;;;;;;6300392;28;20488;-65
2021/12/17 02:38:21;;;;;;;1.20;1.10;;;6.50;94.20;;;;;;6301145;28;20473;-65
2021/12/17 02:48:08;;;;;;;1.87;1.50;;;6.30;94.70;;;;;;6300684;28;20477;-65
2021/12/17 02:51:12;;;;;;;1.10;1.00;;;6.30;94.80;;;;;;6301105;28;20556;-65
2021/12/17 02:54:17;;;;;;;2.10;1.00;;;6.40;94.50;;;;;;6300711;28;20473;-65
2021/12/17 02:57:21;;;;;;;1.00;0.80;;;6.60;94.40;;;;;;6300735;28;20481;-65
2021/12/17 03:00:24;;;;;;;1.30;1.20;;;6.80;93.80;;;;;;6291102;28;20481;-66
2021/12/17 03:03:31;;;;;;;1.60;1.03;;;7.00;93.20;;;;;;6300527;28;21050;-65
2021/12/17 03:06:33;;;;;;;1.33;1.10;;;7.10;92.80;;;;;;6300393;28;20469;-65
2021/12/17 03:09:53;;;;;;;2.63;0.80;;;7.30;92.40;;;;;;6299703;28;20468;-65
2021/12/17 03:13:00;;;;;;;0.80;0.80;;;7.50;91.80;;;;;;6300114;28;20498;-65
2021/12/17 03:16:09;;;;;;;0.70;0.70;;;7.60;91.30;;;;;;6300509;28;20563;-65
2021/12/17 03:19:27;;;;;;;0.80;0.80;;;7.80;90.50;;;;;;6276505;28;20544;-65
2021/12/17 03:25:52;;;;;;;0.60;0.60;;;8.10;88.40;;;;;;6298007;28;20488;-65
2021/12/17 03:28:56;;;;;;;1.47;1.03;;;8.30;86.10;;;;;;6296761;28;20976;-65
2021/12/17 03:32:01;;;;;;;1.07;0.70;;;8.40;85.10;;;;;;6297188;28;20978;-65
2021/12/17 03:35:05;;;;;;;0.70;0.53;;;8.50;84.50;;;;;;6299669;28;20526;-65
2021/12/17 03:38:09;;;;;;;1.53;0.80;;;8.60;83.60;;;;;;6299499;28;20476;-65
2021/12/17 03:41:19;;;;;;;0.60;0.60;;;8.60;82.00;;;;;;6299596;28;20480;-65
2021/12/17 03:44:22;;;;;;;0.80;0.67;;;8.60;82.50;;;;;;6296608;28;20965;-65
2021/12/17 03:47:25;;;;;;;0.67;0.67;;;8.60;83.90;;;;;;6299303;28;20500;-65
2021/12/17 03:50:33;;;;;;;0.97;0.80;;;8.50;82.70;;;;;;6299819;28;20642;-65
2021/12/17 03:53:36;;;;;;;0.73;0.53;;;8.50;82.50;;;;;;6300359;28;20484;-66
2021/12/17 03:56:40;;;;;;;0.70;0.50;;;8.50;82.30;;;;;;6299691;28;20526;-65
2021/12/17 03:59:43;;;;;;;0.60;0.50;;;8.50;82.80;;;;;;6299939;28;20465;-65
2021/12/17 04:02:47;;;;;;;0.67;0.63;;;8.40;83.30;;;;;;6290677;28;20473;-65
2021/12/17 04:05:50;;;;;;;1.40;0.70;;;8.30;83.30;;;;;;6299598;28;20461;-65
2021/12/17 04:08:54;;;;;;;0.60;0.53;;;8.30;83.20;;;;;;6300034;28;20476;-65
2021/12/17 04:12:01;;;;;;;0.90;0.60;;;8.20;83.60;;;;;;6300133;28;20472;-65
2021/12/17 04:15:05;;;;;;;0.97;0.73;;;8.20;83.90;;;;;;6299430;28;20492;-65
2021/12/17 04:18:10;;;;;;;1.53;0.70;;;8.20;83.00;;;;;;6300682;28;20469;-65
2021/12/17 04:21:15;;;;;;;0.80;0.70;;;8.20;83.00;;;;;;6302230;28;20465;-66
2021/12/17 04:24:18;;;;;;;0.60;0.60;;;8.30;82.50;;;;;;6306666;28;20602;-66
2021/12/17 04:27:22;;;;;;;1.77;0.90;;;8.20;82.60;;;;;;6307163;28;20526;-65
2021/12/17 04:30:26;;;;;;;1.00;0.93;;;8.20;82.30;;;;;;6310170;28;20472;-66
2021/12/17 04:33:29;;;;;;;0.73;0.70;;;8.10;82.00;;;;;;6304694;28;20500;-65
2021/12/17 04:36:35;;;;;;;1.27;0.80;;;8.10;82.40;;;;;;6304235;28;20488;-65
2021/12/17 04:39:38;;;;;;;0.80;0.80;;;8.00;82.70;;;;;;6304216;28;20469;-65
2021/12/17 04:42:53;;;;;;;1.07;0.70;;;7.90;83.20;;;;;;6303370;28;20519;-65
2021/12/17 04:46:04;;;;;;;1.07;0.83;;;7.80;83.70;;;;;;6295939;28;21006;-65
2021/12/17 04:59:19;;;;;;;1.40;1.27;;;7.60;83.60;;;;;;6302528;28;20478;-65
2021/12/17 05:02:22;;;;;;;1.93;0.90;;;7.60;83.50;;;;;;6303824;28;20472;-65
2021/12/17 05:05:29;;;;;;;1.80;1.00;;;7.60;83.10;;;;;;6298666;28;20538;-65
2021/12/17 05:08:33;;;;;;;1.00;0.90;;;7.60;83.10;;;;;;6303384;28;20488;-65
2021/12/17 05:18:24;;;;;;;1.33;1.17;;;7.60;81.90;;;;;;6302782;28;20474;-65
2021/12/17 05:21:27;;;;;;;0.93;0.93;;;7.60;81.60;;;;;;6303262;28;20470;-65
2021/12/17 05:24:30;;;;;;;0.77;0.77;;;7.60;81.40;;;;;;6302597;28;20829;-65
2021/12/17 05:27:33;;;;;;;1.37;0.97;;;7.50;81.80;;;;;;6302713;28;20461;-65
2021/12/17 05:30:45;;;;;;;1.30;1.20;;;7.50;81.70;;;;;;6302429;28;20747;-65
2021/12/17 05:33:48;;;;;;;2.17;1.47;;;7.50;81.90;;;;;;6302451;28;20486;-65
2021/12/17 05:36:51;;;;;;;2.93;1.33;;;7.50;83.00;;;;;;6303037;28;20477;-65
2021/12/17 05:39:55;;;;;;;2.00;1.50;;;7.40;83.40;;;;;;6302372;28;20469;-65
2021/12/17 05:43:00;;;;;;;2.50;1.70;;;7.30;84.00;;;;;;6303030;28;20484;-65
2021/12/17 05:46:10;;;;;;;1.57;1.03;;;7.20;85.30;;;;;;6302567;28;20936;-65
2021/12/17 05:49:13;;;;;;;8.67;1.97;;;7.10;85.30;;;;;;6302683;28;20514;-65
2021/12/17 05:52:16;;;;;;;2.13;1.37;;;7.00;85.00;;;;;;6302436;28;20476;-65
2021/12/17 05:55:20;;;;;;;2.07;1.60;;;7.00;85.50;;;;;;6302670;28;20472;-65
2021/12/17 05:58:23;;;;;;;3.83;1.70;;;6.90;86.20;;;;;;6302386;28;20487;-64
2021/12/17 06:01:28;;;;;;;1.70;1.60;;;6.90;86.70;;;;;;6302009;28;20912;-64
2021/12/17 06:04:31;;;;;;;2.00;1.77;;;6.90;87.00;;;;;;6302201;28;20469;-65
2021/12/17 06:07:34;;;;;;;5.93;1.63;;;6.80;87.90;;;;;;6302563;28;20472;-65
2021/12/17 06:10:37;;;;;;;3.43;2.00;;;6.80;88.40;;;;;;6297958;28;20476;-65
2021/12/17 06:13:40;;;;;;;3.90;1.90;;;6.80;87.90;;;;;;6302599;28;20465;-65
2021/12/17 06:16:45;;;;;;;2.37;1.70;;;6.70;87.80;;;;;;6302816;28;20472;-65
2021/12/17 06:19:48;;;;;;;3.70;2.07;;;6.70;88.00;;;;;;6302346;28;20472;-65
2021/12/17 06:22:53;;;;;;;3.70;2.37;;;6.60;88.40;;;;;;6302385;28;20476;-65
2021/12/17 06:25:56;;;;;;;2.40;2.20;;;6.60;89.50;;;;;;6301605;28;20465;-65
2021/12/17 06:28:59;;;;;;;3.73;3.13;;;6.60;89.50;;;;;;6302176;28;20465;-64
2021/12/17 06:32:04;;;;;;;6.20;2.87;;;6.60;89.60;;;;;;6302004;28;20469;-65
2021/12/17 06:35:09;;;;;;;7.37;4.53;;;6.60;89.30;;;;;;6301685;28;20801;-65
2021/12/17 06:38:12;;;;;;;9.23;4.73;;;6.50;89.50;;;;;;6301294;28;20807;-65
2021/12/17 06:41:15;;;;;;;8.23;6.67;;;6.50;89.90;;;;;;6301637;28;20476;-65
2021/12/17 06:44:22;;;;;;;6.07;4.53;;;6.50;90.20;;;;;;6301163;28;20821;-65
2021/12/17 06:47:30;;;;;;;9.13;5.80;;;6.40;90.40;;;;;;6301820;28;20469;-65
2021/12/17 07:00:57;;;;;;;7.40;5.40;;;6.30;90.70;;;;;;6306084;28;20473;-65
2021/12/17 07:10:53;;;;;;;7.10;3.90;;;6.40;90.60;;;;;;6297652;28;20474;-65
2021/12/17 07:17:23;;;;;;;1.83;1.30;;;6.30;90.40;;;;;;6275546;28;20949;-65
2021/12/17 07:20:57;;;;;;;1.63;1.53;;;6.30;90.40;;;;;;6275745;28;20478;-66
2021/12/17 07:34:14;;;;;;;1.53;1.07;;;7.10;85.60;;;;;;6301411;28;20457;-65
2021/12/17 07:40:43;;;;;;;5.43;2.33;;;7.50;83.50;;;;;;6301198;28;20953;-65
2021/12/17 07:43:54;;;;;;;1.93;1.13;;;7.60;82.70;;;;;;6301234;28;20961;-66
2021/12/17 07:46:57;;;;;;;1.07;0.97;;;7.80;81.90;;;;;;6300206;28;20469;-66
2021/12/17 07:50:01;;;;;;;2.00;1.63;;;8.00;81.40;;;;;;6300236;28;20789;-66
2021/12/17 07:53:05;;;;;;;3.10;2.50;;;8.20;80.60;;;;;;6299992;28;20480;-65
2021/12/17 07:56:11;;;;;;;3.43;1.50;;;8.40;80.40;;;;;;6300073;28;20469;-66
2021/12/17 07:59:14;;;;;;;1.93;1.40;;;8.60;79.80;;;;;;6300291;28;20468;-67
2021/12/17 08:02:17;;;;;;;1.50;1.20;;;8.70;78.20;;;;;;6300114;28;20465;-66
2021/12/17 08:05:21;;;;;;;1.17;1.03;;;8.80;77.70;;;;;;6299353;28;20484;-66
2021/12/17 08:08:25;;;;;;;2.67;1.97;;;8.90;77.00;;;;;;6300899;28;20536;-67
2021/12/17 08:11:31;;;;;;;1.70;1.60;;;9.10;76.20;;;;;;6302811;28;20480;-67
2021/12/17 08:14:34;;;;;;;3.67;1.87;;;9.10;75.90;;;;;;6276303;28;20784;-67
2021/12/17 08:17:51;;;;;;;2.70;1.57;;;9.20;75.70;;;;;;6271158;28;20485;-68
2021/12/17 08:27:51;;;;;;;4.13;1.40;;;9.20;74.80;;;;;;6279457;28;20475;-67
2021/12/17 08:30:55;;;;;;;5.93;1.03;;;9.20;74.80;;;;;;6279100;28;20565;-67
2021/12/17 08:33:59;;;;;;;1.63;1.50;;;9.20;74.40;;;;;;6274899;28;20478;-68
2021/12/17 08:37:02;;;;;;;1.43;1.00;;;9.50;74.20;;;;;;6274947;28;20474;-67
2021/12/17 08:40:09;;;;;;;6.37;1.20;;;9.70;73.80;;;;;;6274978;28;20481;-67
2021/12/17 08:43:12;;;;;;;1.60;1.20;;;10.00;71.70;;;;;;6274821;28;20506;-62
2021/12/17 08:46:15;;;;;;;4.80;1.60;;;10.10;70.50;;;;;;6274545;28;20437;-63
2021/12/17 08:49:18;;;;;;;1.80;1.20;;;10.40;70.00;;;;;;6274024;28;20767;-62
2021/12/17 08:52:26;;;;;;;2.83;1.53;;;10.60;69.30;;;;;;6277114;28;20446;-62
2021/12/17 08:55:31;;;;;;;2.50;1.53;;;10.80;68.60;;;;;;6276965;28;20520;-63
2021/12/17 08:58:35;;;;;;;1.90;1.40;;;10.90;67.40;;;;;;6274668;28;21037;-62
2021/12/17 09:01:38;;;;;;;6.43;1.47;;;11.10;66.70;;;;;;6273701;28;20980;-62
2021/12/17 09:04:41;;;;;;;3.07;1.37;;;11.20;66.40;;;;;;6274304;28;20482;-62
2021/12/17 09:07:44;;;;;;;2.80;1.00;;;11.50;65.90;;;;;;6274484;28;20465;-63
2021/12/17 09:10:51;;;;;;;3.77;1.50;;;11.70;64.70;;;;;;6291917;28;20960;-63
2021/12/17 09:13:58;;;;;;;5.70;3.57;;;12.00;63.70;;;;;;6303064;28;20484;-63
2021/12/17 09:17:01;;;;;;;6.33;5.10;;;12.20;63.70;;;;;;6303373;28;20488;-63
2021/12/17 09:20:06;;;;;;;8.33;5.60;;;12.20;66.10;;;;;;6303243;28;20465;-62
2021/12/17 09:23:09;;;;;;;7.13;5.33;;;12.30;66.60;;;;;;6288655;28;20972;-62
2021/12/17 09:26:17;;;;;;;10.93;5.70;;;12.30;67.10;;;;;;6303358;28;20473;-62
2021/12/17 09:29:20;;;;;;;11.40;6.13;;;12.30;67.10;;;;;;6303262;28;20469;-63
2021/12/17 09:32:23;;;;;;;11.10;6.80;;;12.40;68.00;;;;;;6303541;28;20475;-63
2021/12/17 09:35:26;;;;;;;9.50;7.53;;;12.20;67.60;;;;;;6303039;28;20621;-62
2021/12/17 09:38:30;;;;;;;8.70;6.03;;;11.80;68.50;;;;;;6304025;28;20952;-62
2021/12/17 09:41:36;;;;;;;10.03;6.43;;;11.20;70.90;;;;;;6303410;28;20472;-62
2021/12/17 09:44:39;;;;;;;7.93;6.17;;;10.90;71.70;;;;;;6302065;28;20489;-62
2021/12/17 09:47:44;;;;;;;13.13;6.83;;;10.60;73.20;;;;;;6301912;28;20477;-62
2021/12/17 09:50:47;;;;;;;6.60;5.47;;;10.70;73.60;;;;;;6300604;28;20507;-62
2021/12/17 09:53:50;;;;;;;7.03;5.63;;;10.80;74.00;;;;;;6302006;28;20477;-63
2021/12/17 09:56:55;;;;;;;8.87;6.07;;;10.90;74.20;;;;;;6294751;28;20940;-64
2021/12/17 09:59:58;;;;;;;9.67;6.20;;;10.90;74.10;;;;;;6298711;28;20480;-63
2021/12/17 10:03:01;;;;;;;11.20;8.00;;;10.80;74.30;;;;;;6300950;28;20488;-63
2021/12/17 10:06:06;;;;;;;11.77;7.00;;;10.70;75.20;;;;;;6277730;28;20470;-62
2021/12/17 10:09:09;;;;;;;13.90;8.13;;;10.60;76.00;;;;;;6288447;28;20944;-62
2021/12/17 10:12:14;;;;;;;12.30;8.20;;;10.50;76.50;;;;;;6276251;28;20473;-63
2021/12/17 10:15:22;;;;;;;12.93;7.13;;;10.30;77.10;;;;;;6300279;28;20950;-64
2021/12/17 10:18:33;;;;;;;10.77;6.60;;;10.20;77.80;;;;;;6282121;28;20478;-65
2021/12/17 10:21:38;;;;;;;9.33;6.67;;;10.10;77.70;;;;;;6275331;28;20478;-65
2021/12/17 10:24:44;;;;;;;13.60;7.20;;;10.00;77.90;;;;;;6288378;28;20485;-65
2021/12/17 10:27:49;;;;;;;13.87;6.33;;;9.90;79.00;;;;;;6290106;28;20477;-65
2021/12/17 10:30:54;;;;;;;8.40;6.20;;;9.90;79.30;;;;;;6287540;28;20989;-64
2021/12/17 10:34:00;;;;;;;13.50;6.80;;;9.90;79.50;;;;;;6294759;28;20479;-64
2021/12/17 10:37:04;;;;;;;9.47;6.00;;;10.00;78.30;;;;;;6299382;28;20473;-64
2021/12/17 10:40:20;;;;;;;18.40;5.60;;;10.00;78.80;;;;;;6299236;28;20473;-64
2021/12/17 10:43:31;;;;;;;9.60;5.73;;;10.00;78.70;;;;;;6298828;28;20465;-64
2021/12/17 10:46:45;;;;;;;8.20;6.10;;;10.00;78.20;;;;;;6297943;28;20464;-63
2021/12/17 10:49:53;;;;;;;14.27;6.53;;;10.00;78.70;;;;;;6299619;28;21186;-64
2021/12/17 10:52:56;;;;;;;13.10;6.30;;;10.10;79.20;;;;;;6287534;28;20520;-64
2021/12/17 10:56:00;;;;;;;12.27;5.33;;;10.20;79.40;;;;;;6291079;28;20469;-63
2021/12/17 10:59:06;;;;;;;8.63;6.07;;;10.50;79.10;;;;;;6299197;28;20485;-62
2021/12/17 11:02:11;;;;;;;11.30;4.87;;;10.80;78.20;;;;;;6299174;28;20469;-63
2021/12/17 11:05:16;;;;;;;13.50;5.53;;;11.00;76.40;;;;;;6284682;28;20484;-63
2021/12/17 11:08:24;;;;;;;10.53;5.00;;;11.30;76.60;;;;;;6281599;27;20466;-62
2021/12/17 11:11:33;;;;;;;12.47;6.30;;;11.70;74.50;;;;;;6274009;28;20466;-63
2021/12/17 11:14:38;;;;;;;9.90;5.80;;;12.20;73.40;;;;;;6274171;28;20489;-63
2021/12/17 11:17:43;;;;;;;5.67;5.17;;;13.30;71.60;;;;;;6274073;28;20474;-62
2021/12/17 11:20:46;;;;;;;5.83;3.90;;;14.80;67.70;;;;;;6274064;28;20477;-61
2021/12/17 11:23:50;;;;;;;8.43;5.47;;;15.00;62.70;;;;;;6274005;28;20787;-61
2021/12/17 11:26:54;;;;;;;7.13;4.60;;;14.60;62.80;;;;;;6273474;28;20474;-65
2021/12/17 11:29:59;;;;;;;9.93;4.50;;;14.40;62.90;;;;;;6269301;28;20474;-65
2021/12/17 11:33:04;;;;;;;8.70;5.10;;;17.20;59.30;;;;;;6273109;28;20493;-65
2021/12/17 11:36:07;;;;;;;16.50;8.00;;;21.20;49.80;;;;;;6273610;28;20749;-63
2021/12/17 11:39:18;;;;;;;10.20;4.60;;;24.50;42.20;;;;;;6273320;28;20223;-65
2021/12/17 11:42:34;;;;;;;9.40;4.50;;;27.10;33.40;;;;;;6273293;28;20246;-65
2021/12/17 11:45:38;;;;;;;11.17;5.13;;;29.90;27.70;;;;;;6273338;28;20238;-65
2021/12/17 11:48:49;;;;;;;15.10;5.70;;;32.00;24.90;;;;;;6273187;28;20228;-65
2021/12/17 11:51:55;;;;;;;13.23;4.30;;;34.10;23.20;;;;;;6277316;28;20231;-65
2021/12/17 11:55:23;;;;;;;4.45;1.30;;;35.70;20.90;;;;;;6276738;28;20241;-65
2021/12/17 11:58:59;;;;;;;3.97;1.40;;;35.80;18.80;;;;;;6271691;28;20233;-64
2021/12/17 12:02:11;;;;;;;4.90;1.27;;;32.80;19.50;;;;;;6208192;28;20222;-70
2021/12/17 12:05:34;;;;;;;11.33;1.80;;;30.20;20.80;;;;;;6221155;28;20231;-67
2021/12/17 12:08:46;;;;;;;3.37;1.00;;;30.80;21.20;;;;;;6273017;28;20555;-64
2021/12/17 12:12:09;;;;;;;1.10;0.70;;;32.30;20.80;;;;;;6270318;28;20232;-65
2021/12/17 12:15:39;;;;;;;6.13;2.03;;;33.20;19.50;;;;;;6271278;28;20242;-65
2021/12/17 12:18:47;;;;;;;6.13;1.23;;;32.60;19.90;;;;;;6272698;28;20222;-64
2021/12/17 12:22:06;;;;;;;10.37;1.70;;;30.30;20.80;;;;;;6271912;28;20566;-65
2021/12/17 12:25:33;;;;;;;1.67;0.90;;;27.90;23.00;;;;;;6270620;28;20226;-66
2021/12/17 12:28:58;;;;;;;7.03;1.70;;;27.90;23.10;;;;;;6257879;28;20660;-65
2021/12/17 12:32:18;;;;;;;8.40;1.43;;;30.20;22.70;;;;;;6268093;28;20294;-67
2021/12/17 12:35:23;;;;;;;4.28;1.60;;;32.90;21.20;;;;;;6260911;28;20303;-64
2021/12/17 12:38:33;;;;;;;2.33;1.30;;;34.50;19.60;;;;;;6275336;28;20327;-63
2021/12/17 12:41:46;;;;;;;1.92;1.02;;;35.50;19.20;;;;;;6260643;28;20230;-65
2021/12/17 12:45:13;;;;;;;4.53;1.25;;;35.40;18.60;;;;;;6252798;28;20246;-65
2021/12/17 12:48:29;;;;;;;1.33;0.90;;;35.30;18.60;;;;;;6254128;28;20239;-66
2021/12/17 12:51:35;;;;;;;1.10;0.70;;;35.20;18.60;;;;;;6252490;28;20576;-65
2021/12/17 12:54:40;;;;;;;2.90;0.80;;;35.10;18.50;;;;;;6252701;28;20580;-66
2021/12/17 12:57:45;;;;;;;3.38;1.20;;;34.50;18.60;;;;;;6261591;28;20240;-67
2021/12/17 13:00:53;;;;;;;5.95;1.33;;;33.60;19.10;;;;;;6268742;28;20637;-64
2021/12/17 13:03:57;;;;;;;2.70;1.10;;;31.90;19.90;;;;;;6273553;28;20231;-65
2021/12/17 13:07:02;;;;;;;2.93;1.00;;;29.30;21.50;;;;;;6264462;28;20538;-65
2021/12/17 13:10:11;;;;;;;5.20;1.10;;;26.60;23.50;;;;;;6276961;28;20785;-64
2021/12/17 13:13:19;;;;;;;3.03;1.00;;;24.70;25.40;;;;;;6277436;28;20224;-64
2021/12/17 13:16:35;;;;;;;0.90;0.47;;;24.20;25.90;;;;;;6300630;27;20711;-67
2021/12/17 13:23:25;;;;;;;2.50;0.50;;;24.00;26.40;;;;;;6220085;28;20673;-67
2021/12/17 13:26:28;;;;;;;1.20;0.60;;;23.50;26.30;;;;;;6252639;28;20577;-67
2021/12/17 13:29:34;;;;;;;0.70;0.50;;;22.40;27.20;;;;;;6252869;28;20303;-67
2021/12/17 13:32:43;;;;;;;2.40;0.57;;;22.40;27.60;;;;;;6264860;28;20224;-68
2021/12/17 13:35:47;;;;;;;1.47;0.40;;;23.60;26.90;;;;;;6278274;28;20239;-68
2021/12/17 13:38:57;;;;;;;1.03;0.57;;;24.60;26.20;;;;;;6267869;28;20242;-66
2021/12/17 13:42:02;;;;;;;2.60;0.70;;;25.00;25.20;;;;;;6270029;28;20231;-66
2021/12/17 13:45:07;;;;;;;1.23;0.40;;;25.60;24.70;;;;;;6275695;28;20243;-66
2021/12/17 13:48:15;;;;;;;0.70;0.40;;;25.50;24.50;;;;;;6276476;28;20227;-64
2021/12/17 13:51:18;;;;;;;4.17;3.57;;;25.50;24.80;;;;;;6276560;28;20231;-62
2021/12/17 13:54:23;;;;;;;4.10;3.60;;;25.00;27.20;;;;;;6275884;28;20318;-62
2021/12/17 13:57:28;;;;;;;5.00;3.60;;;24.20;28.30;;;;;;6275822;28;20242;-62
2021/12/17 14:00:36;;;;;;;4.70;3.70;;;23.10;29.20;;;;;;6276519;28;20679;-61
2021/12/17 14:03:42;;;;;;;9.63;5.57;;;23.30;29.70;;;;;;6276383;28;20263;-62
2021/12/17 14:06:52;;;;;;;6.70;5.43;;;23.70;30.00;;;;;;6253137;28;20224;-63
2021/12/17 14:09:59;;;;;;;8.67;5.93;;;23.90;29.70;;;;;;6255120;28;20220;-61
2021/12/17 14:13:05;;;;;;;6.93;6.23;;;23.40;30.30;;;;;;6278733;28;20235;-62
2021/12/17 14:16:30;;;;;;;6.40;5.80;;;21.60;32.40;;;;;;6297427;28;20256;-64
2021/12/17 14:19:41;;;;;;;8.00;6.17;;;20.70;34.30;;;;;;6302390;28;20331;-64
2021/12/17 14:22:47;;;;;;;5.90;5.30;;;19.90;35.70;;;;;;6302264;28;20308;-63
2021/12/17 14:25:54;;;;;;;9.20;5.97;;;19.00;36.90;;;;;;6299975;28;20682;-63
2021/12/17 14:29:09;;;;;;;7.43;6.50;;;17.50;39.30;;;;;;6301909;28;20979;-65
2021/12/17 14:32:17;;;;;;;11.00;7.23;;;14.90;44.60;;;;;;6299244;28;20485;-65
2021/12/17 14:35:40;;;;;;;8.60;6.10;;;13.50;48.10;;;;;;6300953;28;20473;-66
2021/12/17 14:38:49;;;;;;;9.23;7.63;;;12.40;51.50;;;;;;6302023;28;20474;-65
2021/12/17 14:41:57;;;;;;;10.23;6.70;;;11.70;54.50;;;;;;6297136;28;20473;-66
2021/12/17 14:45:05;;;;;;;7.77;6.73;;;11.40;56.90;;;;;;6301938;28;20792;-65
2021/12/17 14:48:21;;;;;;;9.07;8.20;;;10.90;59.50;;;;;;6301417;28;20465;-64
2021/12/17 15:01:38;;;;;;;8.37;7.40;;;9.60;73.20;;;;;;6299426;28;20469;-67
2021/12/17 15:04:41;;;;;;;9.43;7.37;;;9.40;75.00;;;;;;6290117;28;20471;-67
2021/12/17 15:07:44;;;;;;;10.83;7.63;;;9.20;77.00;;;;;;6273713;28;20555;-67
2021/12/17 15:10:48;;;;;;;10.57;7.40;;;9.10;78.10;;;;;;6296737;28;20473;-67
2021/12/17 15:13:52;;;;;;;10.07;8.93;;;9.00;78.80;;;;;;6293156;28;20485;-67
2021/12/17 15:16:56;;;;;;;7.40;6.70;;;8.90;79.80;;;;;;6277368;28;20913;-66
2021/12/17 15:20:00;;;;;;;9.67;7.50;;;8.90;80.80;;;;;;6297682;28;20473;-66
2021/12/17 15:23:05;;;;;;;8.43;7.13;;;8.70;81.60;;;;;;6298287;28;20481;-67
2021/12/17 15:26:08;;;;;;;10.13;7.13;;;8.60;82.80;;;;;;6298660;28;20481;-66
2021/12/17 15:29:13;;;;;;;9.03;6.70;;;8.60;83.20;;;;;;6298152;28;20912;-67
2021/12/17 15:32:16;;;;;;;9.17;8.27;;;8.50;83.80;;;;;;6299986;28;20465;-66
2021/12/17 15:35:22;;;;;;;12.90;8.10;;;8.50;84.50;;;;;;6298204;28;20469;-64
2021/12/17 15:38:26;;;;;;;9.00;8.20;;;8.40;85.30;;;;;;6299239;28;20805;-64
2021/12/17 15:41:29;;;;;;;10.30;8.40;;;8.40;85.80;;;;;;6299643;28;20469;-66
2021/12/17 15:44:37;;;;;;;9.37;8.43;;;8.30;86.40;;;;;;6300560;28;20473;-68
2021/12/17 15:47:41;;;;;;;10.63;9.40;;;8.40;87.10;;;;;;6301309;28;20511;-64
2021/12/17 15:50:45;;;;;;;11.10;9.13;;;8.30;87.60;;;;;;6301011;28;20530;-67
2021/12/17 15:53:48;;;;;;;11.83;8.60;;;8.10;88.60;;;;;;6301804;28;20469;-65
2021/12/17 15:56:52;;;;;;;10.93;9.37;;;8.00;89.50;;;;;;6300293;28;20815;-66
2021/12/17 15:59:56;;;;;;;9.63;8.37;;;8.00;90.10;;;;;;6299599;28;20473;-65
2021/12/17 16:03:00;;;;;;;13.10;9.60;;;7.90;90.60;;;;;;6299448;28;20495;-65
2021/12/17 16:06:07;;;;;;;10.60;9.50;;;7.90;90.80;;;;;;6299452;28;20460;-65
2021/12/17 16:09:28;;;;;;;11.47;8.80;;;7.80;91.20;;;;;;6300095;28;20469;-65
2021/12/17 16:22:31;;;;;;;11.80;9.10;;;7.70;92.30;;;;;;6289791;28;20500;-65
2021/12/17 16:25:34;;;;;;;11.80;10.50;;;7.70;92.40;;;;;;6304266;28;20469;-68
2021/12/17 16:28:38;;;;;;;13.57;10.10;;;7.60;92.50;;;;;;6305497;28;20465;-65
2021/12/17 16:31:43;;;;;;;14.33;10.73;;;7.60;92.60;;;;;;6304475;28;20522;-64
2021/12/17 16:34:46;;;;;;;16.10;10.53;;;7.50;92.70;;;;;;6301793;28;20778;-65
2021/12/17 16:37:50;;;;;;;14.60;10.60;;;7.50;92.90;;;;;;6306783;28;20488;-65
2021/12/17 16:40:53;;;;;;;17.63;13.57;;;7.50;93.00;;;;;;6307153;28;20477;-65
2021/12/17 16:44:01;;;;;;;17.77;15.70;;;7.60;93.00;;;;;;6308000;28;20473;-65
2021/12/17 16:47:06;;;;;;;19.20;15.90;;;7.60;92.90;;;;;;6306313;28;20469;-65
2021/12/17 16:50:10;;;;;;;19.83;16.37;;;7.60;92.70;;;;;;6296101;28;20476;-66
2021/12/17 16:53:13;;;;;;;19.13;17.13;;;7.60;92.70;;;;;;6304242;28;20485;-66
2021/12/17 16:56:17;;;;;;;18.50;16.63;;;7.60;92.70;;;;;;6303630;28;20481;-66
2021/12/17 16:59:20;;;;;;;14.97;13.47;;;7.60;92.80;;;;;;6303499;28;20476;-66
2021/12/17 17:02:25;;;;;;;14.00;12.07;;;7.50;92.70;;;;;;6304069;28;20469;-65
2021/12/17 17:05:28;;;;;;;13.43;12.03;;;7.50;92.80;;;;;;6304026;28;20473;-66
2021/12/17 17:08:32;;;;;;;15.30;11.50;;;7.50;92.70;;;;;;6304118;28;20461;-65
2021/12/17 17:11:37;;;;;;;14.73;11.17;;;7.40;92.80;;;;;;6303223;28;20480;-66
2021/12/17 17:14:41;;;;;;;15.63;10.40;;;7.40;92.90;;;;;;6278861;28;20485;-65
2021/12/17 17:17:45;;;;;;;12.80;10.53;;;7.30;93.00;;;;;;6278733;28;20473;-66
2021/12/17 17:20:49;;;;;;;11.67;10.20;;;7.30;93.00;;;;;;6295260;28;20500;-65
2021/12/17 17:23:52;;;;;;;11.03;9.93;;;7.20;93.00;;;;;;6304301;28;20477;-66
2021/12/17 17:26:57;;;;;;;11.90;10.57;;;7.20;93.10;;;;;;6303687;28;20465;-66
2021/12/17 17:30:00;;;;;;;12.23;10.47;;;7.10;93.10;;;;;;6302993;28;20468;-66
2021/12/17 17:33:07;;;;;;;11.43;10.23;;;7.00;93.10;;;;;;6303882;28;20538;-66
2021/12/17 17:36:10;;;;;;;10.93;9.63;;;6.90;93.40;;;;;;6307487;28;20469;-66
2021/12/17 17:39:15;;;;;;;13.27;9.67;;;6.80;93.50;;;;;;6306119;28;20489;-64
2021/12/17 17:42:18;;;;;;;11.53;10.33;;;6.90;93.60;;;;;;6303116;28;20477;-66
2021/12/17 17:45:21;;;;;;;13.80;11.07;;;6.90;93.60;;;;;;6302352;28;20539;-66
2021/12/17 17:48:25;;;;;;;12.13;10.60;;;6.80;93.70;;;;;;6303214;28;20530;-64
2021/12/17 17:51:29;;;;;;;13.33;10.87;;;6.80;93.70;;;;;;6302210;28;20610;-66
2021/12/17 17:54:32;;;;;;;11.63;9.77;;;6.70;93.60;;;;;;6298125;28;20538;-66
2021/12/17 17:57:35;;;;;;;12.40;10.47;;;6.60;93.80;;;;;;6302450;28;20477;-66
2021/12/17 18:00:39;;;;;;;13.73;10.03;;;6.60;93.80;;;;;;6304060;28;20473;-68
2021/12/17 18:03:44;;;;;;;11.27;10.17;;;6.50;93.80;;;;;;6300612;28;20473;-66
2021/12/17 18:06:47;;;;;;;11.00;9.30;;;6.40;94.00;;;;;;6278727;28;20485;-66
2021/12/17 18:09:50;;;;;;;11.57;10.37;;;6.40;94.20;;;;;;6283755;28;20758;-66
2021/12/17 18:12:56;;;;;;;16.37;12.23;;;6.40;94.20;;;;;;6302065;28;20465;-66
2021/12/17 18:16:01;;;;;;;19.90;15.63;;;6.30;94.40;;;;;;6301570;28;20477;-65
2021/12/17 18:19:05;;;;;;;15.13;13.53;;;6.30;94.90;;;;;;6301733;28;20469;-65
2021/12/17 18:22:08;;;;;;;19.07;13.67;;;6.20;94.60;;;;;;6300277;28;20485;-66
2021/12/17 18:25:12;;;;;;;13.50;11.70;;;6.20;94.70;;;;;;6298894;28;20489;-65
2021/12/17 18:28:15;;;;;;;13.40;12.00;;;6.20;94.90;;;;;;6286321;28;20458;-64
2021/12/17 18:31:18;;;;;;;14.23;12.57;;;6.20;94.90;;;;;;6298431;28;20452;-64
2021/12/17 18:34:23;;;;;;;14.57;13.00;;;6.10;94.90;;;;;;6292658;28;20471;-64
2021/12/17 18:37:26;;;;;;;14.23;11.17;;;6.00;95.20;;;;;;6278754;28;20757;-64
2021/12/17 18:40:33;;;;;;;14.90;11.00;;;6.00;95.40;;;;;;6277184;28;20454;-64
2021/12/17 18:46:58;;;;;;;20.20;15.07;;;5.90;95.60;;;;;;6306807;28;20539;-64
2021/12/17 18:50:03;;;;;;;13.43;11.83;;;5.80;95.50;;;;;;6306115;28;20465;-64
2021/12/17 18:53:07;;;;;;;16.90;13.53;;;5.80;95.80;;;;;;6307201;28;20938;-65
2021/12/17 18:56:11;;;;;;;15.57;11.47;;;5.80;95.70;;;;;;6301495;28;20540;-64
2021/12/17 18:59:14;;;;;;;13.20;11.13;;;5.80;96.00;;;;;;6306092;28;20484;-66